Reynoldsville, Pennsylvania
Current Conditions -  °F | °C
As of 1:53 AM on Saturday 25 Oct 2014 (Local Time) from KDUJ Reporting Station
Overcast Overcast  
Wind Chill: 42°   Ceiling: 3200
Heat Index: 46°   Visibility: 10mi
Dew Point: 38°   Wind: 7mph
Humidity: 73%   Direction: 260°W
Pressure: 29.97"   Gusts: NA
Location:  41.1°N, 78.89°W
Report Text: KDUJ 250553Z AUTO 26006KT 10SM BKN032 OVC044 08/03 A2997 RMK AO2 SLP149 T00780033 10106 20067 56007
Loading
Personal Weather Stations






























Interactive Weather Map New forecast layout! Learn more

10-Day Weather Forecast

Advertisements
Track Severe Weather on mobile